TimeMST,TemperatureF,Dew PointF,Humidity,Sea Level PressureIn,VisibilityMPH,Wind Direction,Wind SpeedMPH,Gust SpeedMPH,PrecipitationIn,Events,Conditions,WindDirDegrees,DateUTC
12:53 AM,7.0,3.0,84,29.88,10.0,Calm,Calm,-,N/A,,Overcast,0,2012-12-10 07:53:00
1:53 AM,7.0,3.0,84,29.86,10.0,Calm,Calm,-,N/A,,Mostly Cloudy,0,2012-12-10 08:53:00
2:53 AM,8.1,3.9,83,29.84,10.0,Calm,Calm,-,N/A,,Mostly Cloudy,0,2012-12-10 09:53:00
3:53 AM,9.0,6.1,88,29.83,10.0,SW,3.5,-,N/A,,Overcast,230,2012-12-10 10:53:00
4:53 AM,12.2,8.6,85,29.69,10.0,Calm,Calm,-,N/A,,Overcast,0,2012-12-10 11:53:00
5:53 AM,19.9,15.1,81,29.81,10.0,WSW,10.4,-,N/A,,Partly Cloudy,240,2012-12-10 12:53:00
6:53 AM,21.0,15.1,78,29.83,10.0,West,9.2,-,N/A,,Mostly Cloudy,260,2012-12-10 13:53:00
7:53 AM,19.9,15.1,81,29.85,10.0,WSW,12.7,-,N/A,,Overcast,250,2012-12-10 14:53:00
8:53 AM,21.9,17.1,82,29.87,10.0,West,12.7,-,N/A,,Mostly Cloudy,270,2012-12-10 15:53:00
9:08 AM,24.8,19.4,80,29.75,10.0,West,17.3,21.9,N/A,,Mostly Cloudy,280,2012-12-10 16:08:00
9:35 AM,26.6,19.4,74,29.77,10.0,WNW,17.3,-,N/A,,Mostly Cloudy,290,2012-12-10 16:35:00
9:53 AM,26.1,19.9,78,29.89,10.0,WSW,11.5,-,N/A,,Overcast,250,2012-12-10 16:53:00
10:53 AM,26.1,19.9,78,29.90,10.0,West,11.5,-,N/A,,Overcast,270,2012-12-10 17:53:00
11:53 AM,28.9,21.0,72,29.89,10.0,WNW,19.6,26.5,N/A,,Overcast,300,2012-12-10 18:53:00
12:53 PM,30.0,21.9,72,29.88,10.0,WNW,16.1,-,N/A,,Overcast,300,2012-12-10 19:53:00
1:53 PM,30.0,21.9,72,29.88,10.0,West,13.8,-,N/A,,Scattered Clouds,280,2012-12-10 20:53:00
2:53 PM,28.9,23.0,78,29.89,10.0,West,10.4,-,N/A,,Overcast,260,2012-12-10 21:53:00
3:53 PM,28.9,23.0,78,29.89,10.0,WSW,11.5,-,N/A,,Mostly Cloudy,240,2012-12-10 22:53:00
4:53 PM,27.0,21.9,81,29.89,10.0,West,12.7,-,N/A,,Partly Cloudy,260,2012-12-10 23:53:00
5:53 PM,26.6,21.2,80,29.79,10.0,West,15.0,-,N/A,,Overcast,260,2012-12-11 00:53:00
6:53 PM,28.0,21.9,78,29.88,10.0,WNW,16.1,-,N/A,,Mostly Cloudy,290,2012-12-11 01:53:00
7:53 PM,25.0,19.9,81,29.90,10.0,West,11.5,-,N/A,,Partly Cloudy,280,2012-12-11 02:53:00
8:53 PM,21.9,18.0,85,29.89,10.0,WSW,8.1,-,N/A,,Overcast,250,2012-12-11 03:53:00
9:53 PM,21.0,17.1,85,29.89,10.0,WSW,9.2,-,N/A,,Overcast,250,2012-12-11 04:53:00
10:53 PM,19.0,15.1,85,29.90,10.0,WSW,8.1,-,N/A,,Mostly Cloudy,250,2012-12-11 05:53:00
11:53 PM,19.0,15.1,85,29.90,10.0,WSW,9.2,-,N/A,,Partly Cloudy,250,2012-12-11 06:53:00